Weather History for Stanley, ND

Change the Weather History Date:

Tuesday, June 25, 2013

  Actual Average (KMOT) Record (KMOT)
Temperature  
Mean Temperature 70 °F 66 °F  
Max Temperature 77 °F 78 °F 97 °F (1936)
Min Temperature 62 °F 55 °F 39 °F (2004)
Cooling Degree Days 4 3  
Month to date cooling degree days 54  
Year to date cooling degree days 70  
Since 1 June cooling degree days 54  
Growing Degree Days 20 (Base 50)    
Moisture  
Dew Point 67 °F    
Average Humidity 93    
Maximum Humidity 100    
Minimum Humidity 73    
Precipitation  
Precipitation 0.00 in 0.12 in 1.37 in (1996)
Month to date precipitation 3.01  
Year to date precipitation 8.40  
Sea Level Pressure  
Sea Level Pressure 29.68 in    
Wind  
Wind Speed 8 mph (SE)    
Max Wind Speed 18 mph    
Max Gust Speed 26 mph    
Visibility 10 miles    
Events Thunderstorm    
T = Trace of Precipitation, MM = Missing Value Source: NWS Daily Summary

Daily Weather History Graph

Daily Weather History Graph

Search for Another Location

Airport:

Trip Planner

Search our weather history database for the weather conditions in past years. The results will help you decide how hot, cold, wet, or windy it might be!

Date:

Astronomy

Jun. 25, 2013 Rise Set
Actual Time 5:49 AM CDT 9:54 PM CDT
Civil Twilight 5:08 AM CDT 10:36 PM CDT
Nautical Twilight 4:09 AM CDT 11:34 PM CDT
Astronomical Twilight 2:22 AM CDT 1:20 AM CDT
Moon 11:24 PM CDT (6/25) 8:46 AM CDT (6/25)
Length of Visible Light 17h 28m
Length of Day
16h 04m
Waning Gibbous, 92% of the Moon is Illuminated
Jun 25
Waning Gibbous
Jun 29
Last Quarter
Jul 8
New
Jul 15
First Quarter
Jul 22
Full

Hourly Weather History & Observations

Time (CDT) Temp. Dew Point Humidity Pressure Visibility Wind Dir Wind Speed Gust Speed Precip Events Conditions
12:15 AM 68.0 °F 68.0 °F 100% 29.70 in 10.0 mi East 8.1 mph - N/A   Mostly Cloudy
12:35 AM 68.0 °F 68.0 °F 100% 29.69 in 10.0 mi East 9.2 mph - N/A   Scattered Clouds
12:55 AM 68.0 °F 68.0 °F 100% 29.69 in 10.0 mi ENE 6.9 mph - N/A   Partly Cloudy
1:15 AM 66.2 °F 66.2 °F 100% 29.68 in 10.0 mi East 6.9 mph - N/A   Partly Cloudy
1:35 AM 66.2 °F 66.2 °F 100% 29.68 in 10.0 mi East 8.1 mph - N/A   Clear
1:55 AM 64.4 °F 64.4 °F 100% 29.69 in 10.0 mi East 6.9 mph - N/A   Clear
2:15 AM 64.4 °F 64.4 °F 100% 29.69 in 10.0 mi ESE 6.9 mph - N/A   Clear
2:35 AM 64.4 °F 64.4 °F 100% 29.68 in 10.0 mi East 5.8 mph - N/A   Clear
2:55 AM 64.4 °F 64.4 °F 100% 29.68 in 10.0 mi East 4.6 mph - N/A   Clear
3:15 AM 64.4 °F 64.4 °F 100% 29.67 in 10.0 mi East 5.8 mph - N/A   Clear
3:35 AM 64.4 °F 64.4 °F 100% 29.67 in 10.0 mi ESE 6.9 mph - N/A   Clear
3:55 AM 62.6 °F 62.6 °F 100% 29.67 in 10.0 mi SSE 3.5 mph - N/A   Clear
4:15 AM 62.6 °F 62.6 °F 100% 29.67 in 10.0 mi SE 5.8 mph - N/A   Clear
4:35 AM 62.6 °F 62.6 °F 100% 29.66 in 10.0 mi ESE 5.8 mph - N/A   Clear
4:55 AM 62.6 °F 62.6 °F 100% 29.66 in 10.0 mi East 6.9 mph - N/A   Clear
5:15 AM 62.6 °F 62.6 °F 100% 29.66 in 10.0 mi ESE 8.1 mph - N/A   Clear
5:35 AM 62.6 °F 62.6 °F 100% 29.66 in 10.0 mi East 5.8 mph - N/A   Clear
5:55 AM 62.6 °F 62.6 °F 100% 29.65 in 10.0 mi ESE 8.1 mph - N/A   Clear
6:15 AM 62.6 °F 62.6 °F 100% 29.65 in 10.0 mi ESE 6.9 mph - N/A   Clear
6:35 AM 62.6 °F 62.6 °F 100% 29.65 in 10.0 mi ESE 9.2 mph - N/A   Clear
6:55 AM 62.6 °F 62.6 °F 100% 29.66 in 10.0 mi Calm Calm - N/A   Clear
7:15 AM 64.4 °F 64.4 °F 100% 29.66 in 10.0 mi ESE 4.6 mph - N/A   Clear
7:35 AM 64.4 °F 64.4 °F 100% 29.67 in 10.0 mi SSE 3.5 mph - N/A   Clear
7:55 AM 66.2 °F 66.2 °F 100% 29.68 in 10.0 mi Calm Calm - N/A   Mostly Cloudy
8:15 AM 66.2 °F 66.2 °F 100% 29.68 in 10.0 mi Calm Calm - N/A   Overcast
8:35 AM 66.2 °F 66.2 °F 100% 29.68 in 10.0 mi Calm Calm - N/A   Overcast
8:55 AM 66.2 °F 66.2 °F 100% 29.67 in 10.0 mi ENE 4.6 mph - N/A   Overcast
9:15 AM 66.2 °F 66.2 °F 100% 29.67 in 10.0 mi East 8.1 mph - N/A   Overcast
9:35 AM 66.2 °F 66.2 °F 100% 29.67 in 10.0 mi ESE 10.4 mph - N/A   Overcast
9:55 AM 68.0 °F 68.0 °F 100% 29.69 in 10.0 mi ESE 8.1 mph - N/A   Overcast
10:15 AM 68.0 °F 68.0 °F 100% 29.67 in 10.0 mi East 6.9 mph - N/A   Overcast
10:35 AM 69.8 °F 69.8 °F 100% 29.65 in 10.0 mi East 10.4 mph - N/A   Overcast
10:55 AM 69.8 °F 69.8 °F 100% 29.66 in 10.0 mi East 8.1 mph - N/A   Mostly Cloudy
11:15 AM 71.6 °F 71.6 °F 100% 29.65 in 10.0 mi East 9.2 mph - N/A   Overcast
11:35 AM 71.6 °F 71.6 °F 100% 29.65 in 10.0 mi ESE 13.8 mph 17.3 mph N/A   Overcast
11:55 AM 73.4 °F 71.6 °F 94% 29.65 in 10.0 mi East 10.4 mph - N/A   Mostly Cloudy
12:15 PM 75.2 °F 73.4 °F 94% 29.66 in 10.0 mi SE 10.4 mph - N/A   Mostly Cloudy
12:35 PM 75.2 °F 71.6 °F 89% 29.66 in 10.0 mi ESE 11.5 mph - N/A   Scattered Clouds
12:55 PM 75.2 °F 71.6 °F 89% 29.67 in 10.0 mi SSE 8.1 mph - N/A   Scattered Clouds
1:15 PM 75.2 °F 69.8 °F 83% 29.68 in 10.0 mi SSE 6.9 mph - N/A   Mostly Cloudy
1:35 PM 75.2 °F 69.8 °F 83% 29.67 in 10.0 mi SE 4.6 mph - N/A   Scattered Clouds
1:55 PM 77.0 °F 69.8 °F 78% 29.66 in 10.0 mi SE 8.1 mph - N/A   Partly Cloudy
2:15 PM 77.0 °F 71.6 °F 83% 29.65 in 10.0 mi East 8.1 mph - N/A   Clear
2:35 PM 77.0 °F 71.6 °F 83% 29.65 in 10.0 mi ESE 9.2 mph - N/A   Clear
2:55 PM 77.0 °F 73.4 °F 89% 29.66 in 10.0 mi SE 5.8 mph - N/A   Partly Cloudy
3:15 PM 77.0 °F 68.0 °F 74% 29.67 in 10.0 mi South 9.2 mph - N/A   Scattered Clouds
3:35 PM 77.0 °F 69.8 °F 78% 29.67 in 10.0 mi SSE 6.9 mph - N/A   Mostly Cloudy
3:55 PM 75.2 °F 71.6 °F 89% 29.68 in 10.0 mi SW 12.7 mph - N/A   Mostly Cloudy
4:15 PM 75.2 °F 69.8 °F 83% 29.68 in 10.0 mi SW 11.5 mph - N/A Thunderstorm Overcast
4:35 PM 75.2 °F 71.6 °F 89% 29.68 in 10.0 mi WSW 18.4 mph - N/A Thunderstorm Mostly Cloudy
4:55 PM 77.0 °F 68.0 °F 74% 29.67 in 10.0 mi West 13.8 mph - N/A   Scattered Clouds
5:15 PM 77.0 °F 71.6 °F 83% 29.67 in 10.0 mi West 15.0 mph - N/A Thunderstorm Scattered Clouds
5:35 PM 77.0 °F 71.6 °F 83% 29.66 in 10.0 mi West 15.0 mph 25.3 mph N/A   Partly Cloudy
5:55 PM 75.2 °F 71.6 °F 89% 29.66 in 10.0 mi West 16.1 mph 26.5 mph N/A Thunderstorm Scattered Clouds
6:15 PM 75.2 °F 69.8 °F 83% 29.66 in 10.0 mi WNW 13.8 mph 25.3 mph N/A   Scattered Clouds
6:35 PM 73.4 °F 68.0 °F 83% 29.67 in 10.0 mi WNW 11.5 mph 21.9 mph N/A   Scattered Clouds
6:55 PM 77.0 °F 68.0 °F 74% 29.67 in 10.0 mi WNW 17.3 mph 23.0 mph N/A   Partly Cloudy
7:15 PM 75.2 °F 66.2 °F 73% 29.69 in 10.0 mi WNW 10.4 mph 25.3 mph N/A   Clear
7:35 PM 73.4 °F 66.2 °F 78% 29.70 in 10.0 mi WNW 8.1 mph - N/A   Clear
7:55 PM 73.4 °F 66.2 °F 78% 29.70 in 10.0 mi WNW 8.1 mph - N/A   Clear
8:15 PM 71.6 °F 66.2 °F 83% 29.69 in 10.0 mi WNW 6.9 mph - N/A   Clear
8:35 PM 73.4 °F 68.0 °F 83% 29.70 in 10.0 mi WNW 5.8 mph - N/A   Clear
8:55 PM 73.4 °F 66.2 °F 78% 29.70 in 10.0 mi WNW 6.9 mph - N/A   Clear
9:15 PM 71.6 °F 66.2 °F 83% 29.70 in 10.0 mi WNW 6.9 mph - N/A   Clear
9:35 PM 69.8 °F 66.2 °F 88% 29.70 in 10.0 mi West 10.4 mph - N/A   Clear
9:55 PM 68.0 °F 68.0 °F 100% 29.71 in 10.0 mi West 9.2 mph - N/A   Clear
10:15 PM 68.0 °F 68.0 °F 100% 29.73 in 10.0 mi West 8.1 mph - N/A   Clear
10:35 PM 66.2 °F 66.2 °F 100% 29.74 in 10.0 mi West 6.9 mph - N/A   Clear
10:55 PM 66.2 °F 66.2 °F 100% 29.74 in 10.0 mi West 9.2 mph - N/A   Clear
11:15 PM 66.2 °F 66.2 °F 100% 29.74 in 10.0 mi West 6.9 mph - N/A   Clear
11:35 PM 64.4 °F 64.4 °F 100% 29.74 in 10.0 mi West 5.8 mph - N/A   Clear
11:55 PM 64.4 °F 64.4 °F 100% 29.73 in 10.0 mi WNW 8.1 mph - N/A   Clear